sensor_id;sensor_type;location;lat;lon;timestamp;P1;durP1;ratioP1;P2;durP2;ratioP2
34725;SDS011;20951;50.818;4.344;2024-03-22T00:00:15;56.47;;;38.35;;
34725;SDS011;20951;50.818;4.344;2024-03-22T00:02:41;55.67;;;39.83;;
34725;SDS011;20951;50.818;4.344;2024-03-22T00:05:07;53.17;;;37.00;;
34725;SDS011;20951;50.818;4.344;2024-03-22T00:07:33;51.17;;;35.45;;
34725;SDS011;20951;50.818;4.344;2024-03-22T00:09:59;55.47;;;35.72;;
34725;SDS011;20951;50.818;4.344;2024-03-22T00:12:25;53.45;;;36.60;;
34725;SDS011;20951;50.818;4.344;2024-03-22T00:14:51;51.63;;;36.78;;
34725;SDS011;20951;50.818;4.344;2024-03-22T00:17:19;50.05;;;35.08;;
34725;SDS011;20951;50.818;4.344;2024-03-22T00:19:45;51.92;;;35.97;;
34725;SDS011;20951;50.818;4.344;2024-03-22T00:22:11;55.50;;;37.15;;
34725;SDS011;20951;50.818;4.344;2024-03-22T00:24:37;52.00;;;36.25;;
34725;SDS011;20951;50.818;4.344;2024-03-22T00:27:02;49.53;;;35.90;;
34725;SDS011;20951;50.818;4.344;2024-03-22T00:29:28;49.13;;;35.60;;
34725;SDS011;20951;50.818;4.344;2024-03-22T00:31:54;47.03;;;35.00;;
34725;SDS011;20951;50.818;4.344;2024-03-22T00:34:20;44.78;;;33.25;;
34725;SDS011;20951;50.818;4.344;2024-03-22T00:36:46;49.05;;;34.63;;
34725;SDS011;20951;50.818;4.344;2024-03-22T00:39:12;47.90;;;33.72;;
34725;SDS011;20951;50.818;4.344;2024-03-22T00:41:37;47.92;;;34.58;;
34725;SDS011;20951;50.818;4.344;2024-03-22T00:44:04;49.92;;;34.53;;
34725;SDS011;20951;50.818;4.344;2024-03-22T00:46:30;49.15;;;34.17;;
34725;SDS011;20951;50.818;4.344;2024-03-22T00:48:56;47.03;;;34.00;;
34725;SDS011;20951;50.818;4.344;2024-03-22T00:51:23;46.97;;;32.67;;
34725;SDS011;20951;50.818;4.344;2024-03-22T00:53:50;50.35;;;33.33;;
34725;SDS011;20951;50.818;4.344;2024-03-22T00:56:16;48.33;;;32.90;;
34725;SDS011;20951;50.818;4.344;2024-03-22T00:58:42;48.42;;;33.65;;
34725;SDS011;20951;50.818;4.344;2024-03-22T01:01:07;47.22;;;33.25;;
34725;SDS011;20951;50.818;4.344;2024-03-22T01:03:33;48.10;;;34.65;;
34725;SDS011;20951;50.818;4.344;2024-03-22T01:05:59;51.47;;;34.88;;
34725;SDS011;20951;50.818;4.344;2024-03-22T01:08:25;49.50;;;33.38;;
34725;SDS011;20951;50.818;4.344;2024-03-22T01:10:51;49.55;;;35.17;;
34725;SDS011;20951;50.818;4.344;2024-03-22T01:13:17;49.75;;;35.15;;
34725;SDS011;20951;50.818;4.344;2024-03-22T01:15:42;51.78;;;35.83;;
34725;SDS011;20951;50.818;4.344;2024-03-22T01:18:09;47.90;;;35.90;;
34725;SDS011;20951;50.818;4.344;2024-03-22T01:20:34;53.00;;;36.65;;
34725;SDS011;20951;50.818;4.344;2024-03-22T01:23:00;51.33;;;36.53;;
34725;SDS011;20951;50.818;4.344;2024-03-22T01:25:27;50.58;;;37.00;;
34725;SDS011;20951;50.818;4.344;2024-03-22T01:27:53;51.80;;;35.95;;
34725;SDS011;20951;50.818;4.344;2024-03-22T01:30:20;54.70;;;37.05;;
34725;SDS011;20951;50.818;4.344;2024-03-22T01:32:46;53.70;;;36.75;;
34725;SDS011;20951;50.818;4.344;2024-03-22T01:35:11;52.00;;;35.22;;
34725;SDS011;20951;50.818;4.344;2024-03-22T01:37:37;52.65;;;35.63;;
34725;SDS011;20951;50.818;4.344;2024-03-22T01:40:03;50.03;;;34.42;;
34725;SDS011;20951;50.818;4.344;2024-03-22T01:42:30;54.08;;;35.15;;
34725;SDS011;20951;50.818;4.344;2024-03-22T01:44:56;50.00;;;34.83;;
34725;SDS011;20951;50.818;4.344;2024-03-22T01:47:21;51.88;;;34.97;;
34725;SDS011;20951;50.818;4.344;2024-03-22T01:49:48;49.90;;;34.50;;
34725;SDS011;20951;50.818;4.344;2024-03-22T01:52:15;48.65;;;34.85;;
34725;SDS011;20951;50.818;4.344;2024-03-22T01:54:42;49.95;;;34.33;;
34725;SDS011;20951;50.818;4.344;2024-03-22T01:57:07;48.65;;;34.97;;
34725;SDS011;20951;50.818;4.344;2024-03-22T01:59:34;53.88;;;37.03;;
34725;SDS011;20951;50.818;4.344;2024-03-22T02:01:59;52.90;;;36.22;;
34725;SDS011;20951;50.818;4.344;2024-03-22T02:04:25;54.05;;;36.15;;
34725;SDS011;20951;50.818;4.344;2024-03-22T02:06:51;54.95;;;37.72;;
34725;SDS011;20951;50.818;4.344;2024-03-22T02:09:17;54.28;;;37.03;;
34725;SDS011;20951;50.818;4.344;2024-03-22T02:11:43;53.85;;;36.53;;
34725;SDS011;20951;50.818;4.344;2024-03-22T02:14:09;54.90;;;36.42;;
34725;SDS011;20951;50.818;4.344;2024-03-22T02:16:34;52.47;;;36.47;;
34725;SDS011;20951;50.818;4.344;2024-03-22T02:19:00;51.95;;;37.03;;
34725;SDS011;20951;50.818;4.344;2024-03-22T02:21:26;52.28;;;35.45;;
34725;SDS011;20951;50.818;4.344;2024-03-22T02:23:52;53.03;;;36.03;;
34725;SDS011;20951;50.818;4.344;2024-03-22T02:26:17;52.97;;;35.65;;
34725;SDS011;20951;50.818;4.344;2024-03-22T02:28:43;55.15;;;35.42;;
34725;SDS011;20951;50.818;4.344;2024-03-22T02:31:09;54.42;;;36.78;;
34725;SDS011;20951;50.818;4.344;2024-03-22T02:33:35;52.20;;;35.85;;
34725;SDS011;20951;50.818;4.344;2024-03-22T02:36:01;53.58;;;36.05;;
34725;SDS011;20951;50.818;4.344;2024-03-22T02:38:26;49.30;;;34.13;;
34725;SDS011;20951;50.818;4.344;2024-03-22T02:40:52;52.10;;;34.28;;
34725;SDS011;20951;50.818;4.344;2024-03-22T02:43:18;48.13;;;33.58;;
34725;SDS011;20951;50.818;4.344;2024-03-22T02:45:46;50.67;;;34.00;;
34725;SDS011;20951;50.818;4.344;2024-03-22T02:48:12;47.22;;;32.95;;
34725;SDS011;20951;50.818;4.344;2024-03-22T02:50:38;46.72;;;32.17;;
34725;SDS011;20951;50.818;4.344;2024-03-22T02:53:04;45.72;;;32.70;;
34725;SDS011;20951;50.818;4.344;2024-03-22T02:55:30;45.17;;;31.50;;
34725;SDS011;20951;50.818;4.344;2024-03-22T02:58:03;48.17;;;31.65;;
34725;SDS011;20951;50.818;4.344;2024-03-22T03:00:30;47.80;;;32.85;;
34725;SDS011;20951;50.818;4.344;2024-03-22T03:02:56;46.67;;;31.77;;
34725;SDS011;20951;50.818;4.344;2024-03-22T03:05:22;45.00;;;30.95;;
34725;SDS011;20951;50.818;4.344;2024-03-22T03:07:51;45.05;;;30.60;;
34725;SDS011;20951;50.818;4.344;2024-03-22T03:10:16;45.85;;;30.48;;
34725;SDS011;20951;50.818;4.344;2024-03-22T03:12:42;41.10;;;28.67;;
34725;SDS011;20951;50.818;4.344;2024-03-22T03:15:08;46.22;;;29.23;;
34725;SDS011;20951;50.818;4.344;2024-03-22T03:17:34;42.58;;;28.45;;
34725;SDS011;20951;50.818;4.344;2024-03-22T03:20:00;41.40;;;28.05;;
34725;SDS011;20951;50.818;4.344;2024-03-22T03:22:25;42.78;;;28.33;;
34725;SDS011;20951;50.818;4.344;2024-03-22T03:24:51;42.15;;;26.80;;
34725;SDS011;20951;50.818;4.344;2024-03-22T03:27:20;42.70;;;27.50;;
34725;SDS011;20951;50.818;4.344;2024-03-22T03:29:46;40.63;;;27.10;;
34725;SDS011;20951;50.818;4.344;2024-03-22T03:32:12;39.97;;;27.20;;
34725;SDS011;20951;50.818;4.344;2024-03-22T03:34:37;36.80;;;25.30;;
34725;SDS011;20951;50.818;4.344;2024-03-22T03:37:03;38.40;;;25.50;;
34725;SDS011;20951;50.818;4.344;2024-03-22T03:39:29;38.38;;;26.45;;
34725;SDS011;20951;50.818;4.344;2024-03-22T03:41:55;42.45;;;27.75;;
34725;SDS011;20951;50.818;4.344;2024-03-22T03:44:21;38.05;;;26.65;;
34725;SDS011;20951;50.818;4.344;2024-03-22T03:46:46;41.95;;;27.13;;
34725;SDS011;20951;50.818;4.344;2024-03-22T03:49:12;39.05;;;26.60;;
34725;SDS011;20951;50.818;4.344;2024-03-22T03:51:38;38.28;;;27.45;;
34725;SDS011;20951;50.818;4.344;2024-03-22T03:54:04;36.22;;;24.85;;
34725;SDS011;20951;50.818;4.344;2024-03-22T03:56:30;37.85;;;26.25;;
34725;SDS011;20951;50.818;4.344;2024-03-22T03:58:55;37.83;;;26.42;;
34725;SDS011;20951;50.818;4.344;2024-03-22T04:01:21;38.08;;;25.40;;
34725;SDS011;20951;50.818;4.344;2024-03-22T04:03:48;38.08;;;25.10;;
34725;SDS011;20951;50.818;4.344;2024-03-22T04:06:14;38.83;;;25.27;;
34725;SDS011;20951;50.818;4.344;2024-03-22T04:08:40;40.08;;;25.95;;
34725;SDS011;20951;50.818;4.344;2024-03-22T04:11:06;39.15;;;25.45;;
34725;SDS011;20951;50.818;4.344;2024-03-22T04:13:32;39.70;;;24.63;;
34725;SDS011;20951;50.818;4.344;2024-03-22T04:15:58;39.80;;;24.92;;
34725;SDS011;20951;50.818;4.344;2024-03-22T04:18:24;39.63;;;24.77;;
34725;SDS011;20951;50.818;4.344;2024-03-22T04:20:54;36.65;;;23.23;;
34725;SDS011;20951;50.818;4.344;2024-03-22T04:23:20;34.70;;;23.52;;
34725;SDS011;20951;50.818;4.344;2024-03-22T04:25:56;33.60;;;22.75;;
34725;SDS011;20951;50.818;4.344;2024-03-22T04:28:24;31.80;;;22.30;;
34725;SDS011;20951;50.818;4.344;2024-03-22T04:30:58;35.10;;;22.15;;
34725;SDS011;20951;50.818;4.344;2024-03-22T04:33:25;30.77;;;21.48;;
34725;SDS011;20951;50.818;4.344;2024-03-22T04:35:52;30.33;;;20.65;;
34725;SDS011;20951;50.818;4.344;2024-03-22T04:38:18;32.22;;;21.38;;
34725;SDS011;20951;50.818;4.344;2024-03-22T04:40:44;31.30;;;21.75;;
34725;SDS011;20951;50.818;4.344;2024-03-22T04:43:10;33.67;;;22.08;;
34725;SDS011;20951;50.818;4.344;2024-03-22T04:45:35;36.85;;;22.50;;
34725;SDS011;20951;50.818;4.344;2024-03-22T04:48:03;38.05;;;23.75;;
34725;SDS011;20951;50.818;4.344;2024-03-22T04:50:29;34.22;;;23.83;;
34725;SDS011;20951;50.818;4.344;2024-03-22T04:52:55;35.20;;;23.88;;
34725;SDS011;20951;50.818;4.344;2024-03-22T04:55:21;35.72;;;22.95;;
34725;SDS011;20951;50.818;4.344;2024-03-22T04:57:47;34.67;;;22.45;;
34725;SDS011;20951;50.818;4.344;2024-03-22T05:00:13;34.38;;;22.63;;
34725;SDS011;20951;50.818;4.344;2024-03-22T05:02:40;34.53;;;23.17;;
34725;SDS011;20951;50.818;4.344;2024-03-22T05:05:05;36.40;;;25.00;;
34725;SDS011;20951;50.818;4.344;2024-03-22T05:07:33;34.65;;;23.27;;
34725;SDS011;20951;50.818;4.344;2024-03-22T05:09:58;33.33;;;22.95;;
34725;SDS011;20951;50.818;4.344;2024-03-22T05:12:24;37.67;;;23.48;;
34725;SDS011;20951;50.818;4.344;2024-03-22T05:14:50;36.03;;;23.85;;
34725;SDS011;20951;50.818;4.344;2024-03-22T05:17:16;35.08;;;23.27;;
34725;SDS011;20951;50.818;4.344;2024-03-22T05:19:42;35.53;;;23.10;;
34725;SDS011;20951;50.818;4.344;2024-03-22T05:22:08;34.45;;;22.83;;
34725;SDS011;20951;50.818;4.344;2024-03-22T05:24:33;34.78;;;23.20;;
34725;SDS011;20951;50.818;4.344;2024-03-22T05:26:59;40.05;;;25.95;;
34725;SDS011;20951;50.818;4.344;2024-03-22T05:29:25;39.20;;;24.10;;
34725;SDS011;20951;50.818;4.344;2024-03-22T05:31:51;36.58;;;24.02;;
34725;SDS011;20951;50.818;4.344;2024-03-22T05:34:18;36.83;;;23.85;;
34725;SDS011;20951;50.818;4.344;2024-03-22T05:36:44;37.15;;;23.70;;
34725;SDS011;20951;50.818;4.344;2024-03-22T05:39:10;36.08;;;23.30;;
34725;SDS011;20951;50.818;4.344;2024-03-22T05:41:37;35.00;;;23.48;;
34725;SDS011;20951;50.818;4.344;2024-03-22T05:44:03;37.72;;;25.20;;
34725;SDS011;20951;50.818;4.344;2024-03-22T05:46:29;32.05;;;21.10;;
34725;SDS011;20951;50.818;4.344;2024-03-22T05:48:56;27.80;;;19.88;;
34725;SDS011;20951;50.818;4.344;2024-03-22T05:51:23;27.60;;;20.27;;
34725;SDS011;20951;50.818;4.344;2024-03-22T05:53:49;27.30;;;19.20;;
34725;SDS011;20951;50.818;4.344;2024-03-22T05:56:15;32.47;;;21.35;;
34725;SDS011;20951;50.818;4.344;2024-03-22T05:58:41;29.45;;;19.70;;
34725;SDS011;20951;50.818;4.344;2024-03-22T06:01:10;30.55;;;20.25;;
34725;SDS011;20951;50.818;4.344;2024-03-22T06:03:36;29.42;;;20.77;;
34725;SDS011;20951;50.818;4.344;2024-03-22T06:06:02;29.63;;;19.77;;
34725;SDS011;20951;50.818;4.344;2024-03-22T06:08:28;30.98;;;20.35;;
34725;SDS011;20951;50.818;4.344;2024-03-22T06:10:57;32.90;;;21.27;;
34725;SDS011;20951;50.818;4.344;2024-03-22T06:13:22;29.05;;;20.63;;
34725;SDS011;20951;50.818;4.344;2024-03-22T06:15:49;30.95;;;20.90;;
34725;SDS011;20951;50.818;4.344;2024-03-22T06:18:15;33.67;;;21.10;;
34725;SDS011;20951;50.818;4.344;2024-03-22T06:20:43;33.78;;;20.98;;
34725;SDS011;20951;50.818;4.344;2024-03-22T06:23:09;35.58;;;21.55;;
34725;SDS011;20951;50.818;4.344;2024-03-22T06:25:35;33.55;;;21.73;;
34725;SDS011;20951;50.818;4.344;2024-03-22T06:28:01;35.92;;;21.25;;
34725;SDS011;20951;50.818;4.344;2024-03-22T06:30:27;37.63;;;21.58;;
34725;SDS011;20951;50.818;4.344;2024-03-22T06:32:53;34.42;;;21.42;;
34725;SDS011;20951;50.818;4.344;2024-03-22T06:35:22;37.90;;;19.77;;
34725;SDS011;20951;50.818;4.344;2024-03-22T06:37:48;34.88;;;20.95;;
34725;SDS011;20951;50.818;4.344;2024-03-22T06:40:14;31.45;;;20.05;;
34725;SDS011;20951;50.818;4.344;2024-03-22T06:42:40;35.30;;;20.05;;
34725;SDS011;20951;50.818;4.344;2024-03-22T06:45:06;33.10;;;20.45;;
34725;SDS011;20951;50.818;4.344;2024-03-22T06:47:32;33.22;;;20.10;;
34725;SDS011;20951;50.818;4.344;2024-03-22T06:49:58;36.42;;;21.17;;
34725;SDS011;20951;50.818;4.344;2024-03-22T06:52:24;33.58;;;20.58;;
34725;SDS011;20951;50.818;4.344;2024-03-22T06:54:51;31.70;;;18.90;;
34725;SDS011;20951;50.818;4.344;2024-03-22T06:57:18;30.95;;;19.13;;
34725;SDS011;20951;50.818;4.344;2024-03-22T06:59:44;33.15;;;19.98;;
34725;SDS011;20951;50.818;4.344;2024-03-22T07:02:10;35.03;;;20.77;;
34725;SDS011;20951;50.818;4.344;2024-03-22T07:04:39;35.80;;;20.60;;
34725;SDS011;20951;50.818;4.344;2024-03-22T07:07:04;36.30;;;20.75;;
34725;SDS011;20951;50.818;4.344;2024-03-22T07:09:32;34.22;;;21.08;;
34725;SDS011;20951;50.818;4.344;2024-03-22T07:11:58;34.08;;;20.77;;
34725;SDS011;20951;50.818;4.344;2024-03-22T07:14:24;31.45;;;19.42;;
34725;SDS011;20951;50.818;4.344;2024-03-22T07:16:50;32.03;;;17.90;;
34725;SDS011;20951;50.818;4.344;2024-03-22T07:19:18;36.10;;;21.10;;
34725;SDS011;20951;50.818;4.344;2024-03-22T07:21:48;33.47;;;20.40;;
34725;SDS011;20951;50.818;4.344;2024-03-22T07:24:14;33.15;;;19.55;;
34725;SDS011;20951;50.818;4.344;2024-03-22T07:26:40;32.88;;;19.13;;
34725;SDS011;20951;50.818;4.344;2024-03-22T07:29:06;35.78;;;21.08;;
34725;SDS011;20951;50.818;4.344;2024-03-22T07:31:32;34.47;;;20.63;;
34725;SDS011;20951;50.818;4.344;2024-03-22T07:33:57;34.00;;;20.67;;
34725;SDS011;20951;50.818;4.344;2024-03-22T07:36:23;31.10;;;19.63;;
34725;SDS011;20951;50.818;4.344;2024-03-22T07:38:52;28.42;;;18.35;;
34725;SDS011;20951;50.818;4.344;2024-03-22T07:41:18;31.20;;;18.90;;
34725;SDS011;20951;50.818;4.344;2024-03-22T07:43:44;32.33;;;19.30;;
34725;SDS011;20951;50.818;4.344;2024-03-22T07:46:10;33.50;;;20.65;;
34725;SDS011;20951;50.818;4.344;2024-03-22T07:48:36;33.55;;;19.08;;
34725;SDS011;20951;50.818;4.344;2024-03-22T07:51:02;31.33;;;20.10;;
34725;SDS011;20951;50.818;4.344;2024-03-22T07:53:28;33.25;;;20.13;;
34725;SDS011;20951;50.818;4.344;2024-03-22T07:55:54;34.15;;;20.90;;
34725;SDS011;20951;50.818;4.344;2024-03-22T07:58:20;31.83;;;18.60;;
34725;SDS011;20951;50.818;4.344;2024-03-22T08:00:46;30.33;;;19.05;;
34725;SDS011;20951;50.818;4.344;2024-03-22T08:03:14;26.52;;;17.17;;
34725;SDS011;20951;50.818;4.344;2024-03-22T08:05:40;25.55;;;16.27;;
34725;SDS011;20951;50.818;4.344;2024-03-22T08:08:09;27.77;;;17.08;;
34725;SDS011;20951;50.818;4.344;2024-03-22T08:10:35;25.23;;;17.55;;
34725;SDS011;20951;50.818;4.344;2024-03-22T08:13:01;25.98;;;17.63;;
34725;SDS011;20951;50.818;4.344;2024-03-22T08:15:27;26.58;;;17.48;;
34725;SDS011;20951;50.818;4.344;2024-03-22T08:17:53;28.02;;;18.67;;
34725;SDS011;20951;50.818;4.344;2024-03-22T08:20:28;28.83;;;20.38;;
34725;SDS011;20951;50.818;4.344;2024-03-22T08:22:55;30.38;;;20.45;;
34725;SDS011;20951;50.818;4.344;2024-03-22T08:25:20;33.53;;;21.83;;
34725;SDS011;20951;50.818;4.344;2024-03-22T08:27:48;31.38;;;21.92;;
34725;SDS011;20951;50.818;4.344;2024-03-22T08:30:15;36.72;;;23.50;;
34725;SDS011;20951;50.818;4.344;2024-03-22T08:32:41;32.30;;;22.30;;
34725;SDS011;20951;50.818;4.344;2024-03-22T08:35:07;33.45;;;23.05;;
34725;SDS011;20951;50.818;4.344;2024-03-22T08:37:33;31.30;;;21.92;;
34725;SDS011;20951;50.818;4.344;2024-03-22T08:39:59;32.72;;;21.80;;
34725;SDS011;20951;50.818;4.344;2024-03-22T08:42:25;29.50;;;20.65;;
34725;SDS011;20951;50.818;4.344;2024-03-22T08:44:51;30.75;;;20.15;;
34725;SDS011;20951;50.818;4.344;2024-03-22T08:47:17;30.08;;;21.30;;
34725;SDS011;20951;50.818;4.344;2024-03-22T08:49:42;26.70;;;19.65;;
34725;SDS011;20951;50.818;4.344;2024-03-22T08:52:09;31.25;;;20.73;;
34725;SDS011;20951;50.818;4.344;2024-03-22T08:54:35;29.67;;;20.73;;
34725;SDS011;20951;50.818;4.344;2024-03-22T08:57:01;30.80;;;20.73;;
34725;SDS011;20951;50.818;4.344;2024-03-22T08:59:27;29.45;;;20.63;;
34725;SDS011;20951;50.818;4.344;2024-03-22T09:01:53;27.15;;;19.48;;
34725;SDS011;20951;50.818;4.344;2024-03-22T09:04:19;30.67;;;19.95;;
34725;SDS011;20951;50.818;4.344;2024-03-22T09:06:45;29.65;;;19.25;;
34725;SDS011;20951;50.818;4.344;2024-03-22T09:09:11;31.42;;;19.85;;
34725;SDS011;20951;50.818;4.344;2024-03-22T09:11:37;34.55;;;19.92;;
34725;SDS011;20951;50.818;4.344;2024-03-22T09:14:03;31.90;;;21.60;;
34725;SDS011;20951;50.818;4.344;2024-03-22T09:16:29;30.42;;;20.05;;
34725;SDS011;20951;50.818;4.344;2024-03-22T09:18:55;28.83;;;19.77;;
34725;SDS011;20951;50.818;4.344;2024-03-22T09:21:21;43.15;;;24.05;;
34725;SDS011;20951;50.818;4.344;2024-03-22T09:23:49;26.10;;;18.48;;
34725;SDS011;20951;50.818;4.344;2024-03-22T09:26:15;26.88;;;18.85;;
34725;SDS011;20951;50.818;4.344;2024-03-22T09:28:41;28.30;;;18.85;;
34725;SDS011;20951;50.818;4.344;2024-03-22T09:31:07;28.05;;;19.42;;
34725;SDS011;20951;50.818;4.344;2024-03-22T09:33:33;26.17;;;19.67;;
34725;SDS011;20951;50.818;4.344;2024-03-22T09:35:59;29.05;;;19.77;;
34725;SDS011;20951;50.818;4.344;2024-03-22T09:38:26;27.73;;;19.60;;
34725;SDS011;20951;50.818;4.344;2024-03-22T09:40:51;28.42;;;19.38;;
34725;SDS011;20951;50.818;4.344;2024-03-22T09:43:20;27.15;;;20.17;;
34725;SDS011;20951;50.818;4.344;2024-03-22T09:45:47;29.73;;;19.88;;
34725;SDS011;20951;50.818;4.344;2024-03-22T09:48:15;29.90;;;19.60;;
34725;SDS011;20951;50.818;4.344;2024-03-22T09:50:48;31.95;;;19.05;;
34725;SDS011;20951;50.818;4.344;2024-03-22T09:53:20;29.98;;;20.23;;
34725;SDS011;20951;50.818;4.344;2024-03-22T09:55:51;27.70;;;19.20;;
34725;SDS011;20951;50.818;4.344;2024-03-22T09:58:17;25.25;;;18.42;;
34725;SDS011;20951;50.818;4.344;2024-03-22T10:00:43;25.20;;;18.35;;
34725;SDS011;20951;50.818;4.344;2024-03-22T10:03:12;27.10;;;18.92;;
34725;SDS011;20951;50.818;4.344;2024-03-22T10:05:38;25.63;;;18.85;;
34725;SDS011;20951;50.818;4.344;2024-03-22T10:08:04;28.58;;;19.77;;
34725;SDS011;20951;50.818;4.344;2024-03-22T10:10:33;25.45;;;19.05;;
34725;SDS011;20951;50.818;4.344;2024-03-22T10:13:05;29.90;;;18.95;;
34725;SDS011;20951;50.818;4.344;2024-03-22T10:15:31;26.98;;;17.85;;
34725;SDS011;20951;50.818;4.344;2024-03-22T10:17:57;26.55;;;18.48;;
34725;SDS011;20951;50.818;4.344;2024-03-22T10:20:23;24.38;;;17.90;;
34725;SDS011;20951;50.818;4.344;2024-03-22T10:22:55;25.20;;;17.25;;
34725;SDS011;20951;50.818;4.344;2024-03-22T10:25:23;24.77;;;17.50;;
34725;SDS011;20951;50.818;4.344;2024-03-22T10:27:49;24.55;;;17.73;;
34725;SDS011;20951;50.818;4.344;2024-03-22T10:30:15;26.60;;;17.05;;
34725;SDS011;20951;50.818;4.344;2024-03-22T10:32:45;25.30;;;16.77;;
34725;SDS011;20951;50.818;4.344;2024-03-22T10:35:11;23.92;;;17.15;;
34725;SDS011;20951;50.818;4.344;2024-03-22T10:37:39;25.73;;;17.00;;
34725;SDS011;20951;50.818;4.344;2024-03-22T10:40:05;25.00;;;16.73;;
34725;SDS011;20951;50.818;4.344;2024-03-22T10:42:41;22.58;;;16.65;;
34725;SDS011;20951;50.818;4.344;2024-03-22T10:45:10;25.83;;;16.95;;
34725;SDS011;20951;50.818;4.344;2024-03-22T10:47:37;25.92;;;18.60;;
34725;SDS011;20951;50.818;4.344;2024-03-22T10:52:37;22.52;;;16.13;;
34725;SDS011;20951;50.818;4.344;2024-03-22T10:55:22;27.15;;;16.83;;
34725;SDS011;20951;50.818;4.344;2024-03-22T10:57:48;24.15;;;16.85;;
34725;SDS011;20951;50.818;4.344;2024-03-22T11:00:15;24.98;;;16.95;;
34725;SDS011;20951;50.818;4.344;2024-03-22T11:02:53;25.20;;;17.33;;
34725;SDS011;20951;50.818;4.344;2024-03-22T11:05:18;25.45;;;17.20;;
34725;SDS011;20951;50.818;4.344;2024-03-22T11:07:44;25.98;;;17.25;;
34725;SDS011;20951;50.818;4.344;2024-03-22T11:10:13;24.60;;;16.85;;
34725;SDS011;20951;50.818;4.344;2024-03-22T11:12:40;23.02;;;16.00;;
34725;SDS011;20951;50.818;4.344;2024-03-22T11:15:06;27.02;;;16.48;;
34725;SDS011;20951;50.818;4.344;2024-03-22T11:17:37;25.65;;;16.13;;
34725;SDS011;20951;50.818;4.344;2024-03-22T11:20:03;25.17;;;16.52;;
34725;SDS011;20951;50.818;4.344;2024-03-22T11:22:31;23.52;;;15.73;;
34725;SDS011;20951;50.818;4.344;2024-03-22T11:24:57;24.67;;;15.90;;
34725;SDS011;20951;50.818;4.344;2024-03-22T11:27:23;23.77;;;15.20;;
34725;SDS011;20951;50.818;4.344;2024-03-22T11:29:49;24.40;;;15.50;;
34725;SDS011;20951;50.818;4.344;2024-03-22T11:32:16;24.63;;;15.90;;
34725;SDS011;20951;50.818;4.344;2024-03-22T11:34:42;23.60;;;16.63;;
34725;SDS011;20951;50.818;4.344;2024-03-22T11:37:09;22.70;;;15.55;;
34725;SDS011;20951;50.818;4.344;2024-03-22T11:39:35;24.35;;;15.48;;
34725;SDS011;20951;50.818;4.344;2024-03-22T11:42:03;23.50;;;15.55;;
34725;SDS011;20951;50.818;4.344;2024-03-22T11:44:31;22.08;;;14.75;;
34725;SDS011;20951;50.818;4.344;2024-03-22T11:46:58;24.98;;;15.35;;
34725;SDS011;20951;50.818;4.344;2024-03-22T11:49:24;23.30;;;15.32;;
34725;SDS011;20951;50.818;4.344;2024-03-22T11:51:51;21.30;;;14.82;;
34725;SDS011;20951;50.818;4.344;2024-03-22T11:54:20;24.55;;;15.52;;
34725;SDS011;20951;50.818;4.344;2024-03-22T11:56:46;23.17;;;15.50;;
34725;SDS011;20951;50.818;4.344;2024-03-22T11:59:12;22.77;;;16.10;;
34725;SDS011;20951;50.818;4.344;2024-03-22T12:01:39;20.85;;;15.82;;
34725;SDS011;20951;50.818;4.344;2024-03-22T12:04:06;27.42;;;16.92;;
34725;SDS011;20951;50.818;4.344;2024-03-22T12:06:36;23.23;;;16.40;;
34725;SDS011;20951;50.818;4.344;2024-03-22T12:09:02;25.45;;;16.65;;
34725;SDS011;20951;50.818;4.344;2024-03-22T12:11:32;26.80;;;15.90;;
34725;SDS011;20951;50.818;4.344;2024-03-22T12:13:58;22.38;;;15.70;;
34725;SDS011;20951;50.818;4.344;2024-03-22T12:16:27;26.90;;;16.92;;
34725;SDS011;20951;50.818;4.344;2024-03-22T12:18:52;24.23;;;16.45;;
34725;SDS011;20951;50.818;4.344;2024-03-22T12:21:18;26.50;;;16.90;;
34725;SDS011;20951;50.818;4.344;2024-03-22T12:23:44;23.45;;;16.80;;
34725;SDS011;20951;50.818;4.344;2024-03-22T12:26:10;26.17;;;16.67;;
34725;SDS011;20951;50.818;4.344;2024-03-22T12:28:35;25.20;;;19.23;;
34725;SDS011;20951;50.818;4.344;2024-03-22T12:31:10;29.08;;;16.05;;
34725;SDS011;20951;50.818;4.344;2024-03-22T12:33:36;24.42;;;15.95;;
34725;SDS011;20951;50.818;4.344;2024-03-22T12:36:03;24.92;;;16.42;;
34725;SDS011;20951;50.818;4.344;2024-03-22T12:38:29;26.77;;;13.20;;
34725;SDS011;20951;50.818;4.344;2024-03-22T12:40:55;20.08;;;13.00;;
34725;SDS011;20951;50.818;4.344;2024-03-22T12:43:24;24.95;;;12.85;;
34725;SDS011;20951;50.818;4.344;2024-03-22T12:45:50;19.70;;;12.40;;
34725;SDS011;20951;50.818;4.344;2024-03-22T12:48:16;21.33;;;12.07;;
34725;SDS011;20951;50.818;4.344;2024-03-22T12:50:42;20.92;;;12.80;;
34725;SDS011;20951;50.818;4.344;2024-03-22T12:53:08;22.55;;;12.13;;
34725;SDS011;20951;50.818;4.344;2024-03-22T12:55:37;22.30;;;12.27;;
34725;SDS011;20951;50.818;4.344;2024-03-22T12:58:03;24.45;;;12.90;;
34725;SDS011;20951;50.818;4.344;2024-03-22T13:00:29;23.63;;;13.00;;
34725;SDS011;20951;50.818;4.344;2024-03-22T13:02:55;22.77;;;13.50;;
34725;SDS011;20951;50.818;4.344;2024-03-22T13:05:21;27.58;;;13.93;;
34725;SDS011;20951;50.818;4.344;2024-03-22T13:07:47;26.58;;;14.75;;
34725;SDS011;20951;50.818;4.344;2024-03-22T13:10:13;24.35;;;14.45;;
34725;SDS011;20951;50.818;4.344;2024-03-22T13:12:39;20.60;;;13.07;;
34725;SDS011;20951;50.818;4.344;2024-03-22T13:15:04;20.85;;;12.48;;
34725;SDS011;20951;50.818;4.344;2024-03-22T13:17:31;21.83;;;11.88;;
34725;SDS011;20951;50.818;4.344;2024-03-22T13:19:57;20.75;;;12.02;;
34725;SDS011;20951;50.818;4.344;2024-03-22T13:22:23;22.65;;;11.63;;
34725;SDS011;20951;50.818;4.344;2024-03-22T13:24:48;24.48;;;11.82;;
34725;SDS011;20951;50.818;4.344;2024-03-22T13:27:15;20.63;;;11.43;;
34725;SDS011;20951;50.818;4.344;2024-03-22T13:29:41;23.52;;;11.73;;
34725;SDS011;20951;50.818;4.344;2024-03-22T13:32:07;23.10;;;11.60;;
34725;SDS011;20951;50.818;4.344;2024-03-22T13:34:36;21.63;;;11.93;;
34725;SDS011;20951;50.818;4.344;2024-03-22T13:37:02;25.95;;;13.02;;
34725;SDS011;20951;50.818;4.344;2024-03-22T13:39:28;19.45;;;12.43;;
34725;SDS011;20951;50.818;4.344;2024-03-22T13:41:57;23.15;;;12.40;;
34725;SDS011;20951;50.818;4.344;2024-03-22T13:44:23;18.55;;;13.77;;
34725;SDS011;20951;50.818;4.344;2024-03-22T13:46:53;20.33;;;13.00;;
34725;SDS011;20951;50.818;4.344;2024-03-22T13:49:22;20.48;;;13.00;;
34725;SDS011;20951;50.818;4.344;2024-03-22T13:51:49;24.23;;;13.52;;
34725;SDS011;20951;50.818;4.344;2024-03-22T13:54:15;24.40;;;13.88;;
34725;SDS011;20951;50.818;4.344;2024-03-22T13:56:41;23.63;;;14.05;;
34725;SDS011;20951;50.818;4.344;2024-03-22T13:59:08;22.27;;;14.30;;
34725;SDS011;20951;50.818;4.344;2024-03-22T14:01:37;22.92;;;13.65;;
34725;SDS011;20951;50.818;4.344;2024-03-22T14:04:03;22.58;;;14.15;;
34725;SDS011;20951;50.818;4.344;2024-03-22T14:06:30;20.50;;;14.10;;
34725;SDS011;20951;50.818;4.344;2024-03-22T14:08:57;21.48;;;12.65;;
34725;SDS011;20951;50.818;4.344;2024-03-22T14:11:26;21.08;;;13.75;;
34725;SDS011;20951;50.818;4.344;2024-03-22T14:13:55;22.80;;;13.60;;
34725;SDS011;20951;50.818;4.344;2024-03-22T14:16:22;27.50;;;13.77;;
34725;SDS011;20951;50.818;4.344;2024-03-22T14:18:47;26.77;;;12.90;;